createdAt,value
2022-10-12T00:02:04.414Z,102352.56
2022-10-12T00:05:02.022Z,102344.94
2022-10-12T00:07:59.056Z,102349.94
2022-10-12T00:10:56.094Z,102354.38
2022-10-12T00:13:53.044Z,102350.63
2022-10-12T00:16:49.996Z,102359.31
2022-10-12T00:19:47.002Z,102364.31
2022-10-12T00:22:44.140Z,102367.69
2022-10-12T00:25:41.491Z,102359.81
2022-10-12T00:28:39.000Z,102361.19
2022-10-12T00:31:36.346Z,102367.47
2022-10-12T00:34:33.280Z,102367.63
2022-10-12T00:37:29.842Z,102371.31
2022-10-12T00:40:27.163Z,102364.88
2022-10-12T00:43:37.965Z,102371.66
2022-10-12T00:46:45.022Z,102371.13
2022-10-12T00:49:42.110Z,102356.34
2022-10-12T00:52:42.801Z,102357.47
2022-10-12T00:55:43.677Z,102359.44
2022-10-12T00:58:41.145Z,102363.88
2022-10-12T01:01:38.081Z,102354.63
2022-10-12T01:04:34.897Z,102353.56
2022-10-12T01:07:32.193Z,102365.44
2022-10-12T01:10:29.244Z,102367.75
2022-10-12T01:13:26.266Z,102370.84
2022-10-12T01:16:29.797Z,102372.44
2022-10-12T01:19:45.267Z,102371.91
2022-10-12T01:22:45.872Z,102349.00
2022-10-12T01:25:52.228Z,102349.16
2022-10-12T01:28:52.037Z,102352.66
2022-10-12T01:32:06.818Z,102350.06
2022-10-12T01:35:16.705Z,102340.63
2022-10-12T01:38:34.424Z,102350.16
2022-10-12T01:41:54.129Z,102348.41
2022-10-12T01:44:51.197Z,102341.16
2022-10-12T01:47:52.641Z,102331.66
2022-10-12T01:50:51.425Z,102338.81
2022-10-12T01:54:03.739Z,102316.44
2022-10-12T01:57:06.461Z,102326.72
2022-10-12T02:00:07.837Z,102325.69
2022-10-12T02:03:20.873Z,102333.88
2022-10-12T02:06:19.792Z,102327.03
2022-10-12T02:09:26.352Z,102318.72
2022-10-12T02:12:23.897Z,102329.44
2022-10-12T02:15:21.236Z,102329.75
2022-10-12T02:18:18.715Z,102319.28
2022-10-12T02:21:18.094Z,102319.81
2022-10-12T02:24:15.283Z,102316.91
2022-10-12T02:27:12.517Z,102320.19
2022-10-12T02:30:09.634Z,102315.38
2022-10-12T02:33:14.761Z,102322.78
2022-10-12T02:36:14.013Z,102317.69
2022-10-12T02:39:17.097Z,102307.00
2022-10-12T02:42:17.915Z,102300.72
2022-10-12T02:45:15.410Z,102291.28
2022-10-12T02:48:13.869Z,102292.88
2022-10-12T02:51:11.490Z,102297.97
2022-10-12T02:54:08.066Z,102301.84
2022-10-12T02:57:05.081Z,102297.03
2022-10-12T03:00:02.418Z,102296.22
2022-10-12T03:02:59.421Z,102298.84
2022-10-12T03:05:56.578Z,102282.22
2022-10-12T03:08:56.060Z,102290.28
2022-10-12T03:11:53.091Z,102293.84
2022-10-12T03:14:50.236Z,102295.09
2022-10-12T03:17:47.182Z,102300.72
2022-10-12T03:20:48.607Z,102288.44
2022-10-12T03:23:46.070Z,102280.63
2022-10-12T03:26:43.320Z,102277.59
2022-10-12T03:29:40.229Z,102282.00
2022-10-12T03:32:38.097Z,102283.81
2022-10-12T03:35:35.459Z,102281.31
2022-10-12T03:38:31.955Z,102280.94
2022-10-12T03:41:29.494Z,102268.88
2022-10-12T03:44:26.580Z,102269.72
2022-10-12T03:47:23.116Z,102274.31
2022-10-12T03:50:20.110Z,102283.53
2022-10-12T03:53:17.343Z,102267.53
2022-10-12T03:56:14.492Z,102263.69
2022-10-12T03:59:11.419Z,102262.09
2022-10-12T04:02:08.164Z,102259.50
2022-10-12T04:05:05.649Z,102262.38
2022-10-12T04:08:02.021Z,102257.75
2022-10-12T04:10:59.432Z,102245.81
2022-10-12T04:13:56.194Z,102243.31
2022-10-12T04:16:54.421Z,102239.09
2022-10-12T04:19:51.201Z,102246.94
2022-10-12T04:22:48.037Z,102255.53
2022-10-12T04:25:45.519Z,102263.38
2022-10-12T04:28:42.427Z,102259.72
2022-10-12T04:31:39.141Z,102248.88
2022-10-12T04:34:38.795Z,102252.63
2022-10-12T04:37:36.407Z,102256.59
2022-10-12T04:40:33.181Z,102247.09
2022-10-12T04:43:30.470Z,102246.75
2022-10-12T04:46:27.238Z,102251.53
2022-10-12T04:49:24.163Z,102260.38
2022-10-12T04:52:21.182Z,102253.63
2022-10-12T04:55:17.962Z,102259.47
2022-10-12T04:58:15.574Z,102255.91
2022-10-12T05:01:12.727Z,102256.50
2022-10-12T05:04:10.045Z,102249.50
2022-10-12T05:07:07.505Z,102244.13
2022-10-12T05:10:04.825Z,102239.34
2022-10-12T05:13:02.468Z,102233.94
2022-10-12T05:15:59.302Z,102230.41
2022-10-12T05:18:56.148Z,102243.69
2022-10-12T05:21:54.724Z,102234.63
2022-10-12T05:24:53.916Z,102228.09
2022-10-12T05:27:51.394Z,102233.06
2022-10-12T05:30:51.963Z,102224.53
2022-10-12T05:33:49.129Z,102229.34
2022-10-12T05:36:46.691Z,102234.81
2022-10-12T05:39:43.485Z,102231.81
2022-10-12T05:42:40.657Z,102237.44
2022-10-12T05:45:38.213Z,102241.25
2022-10-12T05:48:34.985Z,102242.03
2022-10-12T05:51:32.452Z,102242.03
2022-10-12T05:54:29.130Z,102240.50
2022-10-12T05:57:26.322Z,102236.22
2022-10-12T06:00:22.973Z,102228.50
2022-10-12T06:03:24.065Z,102224.59
2022-10-12T06:06:23.575Z,102236.09
2022-10-12T06:09:20.490Z,102243.09
2022-10-12T06:12:17.240Z,102233.59
2022-10-12T06:15:14.178Z,102237.53
2022-10-12T06:18:11.566Z,102242.03
2022-10-12T06:21:31.918Z,102245.63
2022-10-12T06:24:25.297Z,102245.72
2022-10-12T06:27:22.296Z,102240.94
2022-10-12T06:30:19.247Z,102242.16
2022-10-12T06:33:16.089Z,102240.19
2022-10-12T06:36:13.623Z,102244.69
2022-10-12T06:39:10.704Z,102232.53
2022-10-12T06:42:08.799Z,102224.88
2022-10-12T06:45:11.072Z,102232.22
2022-10-12T06:48:08.453Z,102237.22
2022-10-12T06:51:05.770Z,102244.66
2022-10-12T06:54:03.405Z,102243.84
2022-10-12T06:57:00.638Z,102251.03
2022-10-12T06:59:57.401Z,102246.13
2022-10-12T07:02:54.422Z,102247.50
2022-10-12T07:05:51.287Z,102242.81
2022-10-12T07:08:50.227Z,102231.53
2022-10-12T07:11:47.636Z,102228.47
2022-10-12T07:14:44.795Z,102233.28
2022-10-12T07:17:42.254Z,102228.06
2022-10-12T07:20:41.004Z,102225.22
2022-10-12T07:23:42.481Z,102238.69
2022-10-12T07:26:40.989Z,102233.72
2022-10-12T07:29:38.738Z,102247.84
2022-10-12T07:32:35.306Z,102238.75
2022-10-12T07:35:32.153Z,102246.50
2022-10-12T07:38:29.643Z,102234.81
2022-10-12T07:41:27.544Z,102231.69
2022-10-12T07:44:24.727Z,102238.84
2022-10-12T07:47:21.809Z,102239.78
2022-10-12T07:50:18.123Z,102239.19
2022-10-12T07:53:15.670Z,102236.56
2022-10-12T07:56:15.362Z,102230.16
2022-10-12T07:59:12.298Z,102235.25
2022-10-12T08:02:10.992Z,102236.03
2022-10-12T08:05:08.682Z,102239.66
2022-10-12T08:08:05.658Z,102239.78
2022-10-12T08:11:02.560Z,102234.06
2022-10-12T08:13:59.336Z,102246.69
2022-10-12T08:16:56.589Z,102250.63
2022-10-12T08:19:53.470Z,102247.28
2022-10-12T08:22:50.561Z,102236.91
2022-10-12T08:25:54.294Z,102249.06
2022-10-12T08:28:51.405Z,102237.66
2022-10-12T08:31:51.601Z,102235.69
2022-10-12T08:34:48.331Z,102233.34
2022-10-12T08:37:45.885Z,102230.91
2022-10-12T08:40:56.664Z,102232.28
2022-10-12T08:44:17.813Z,102228.59
2022-10-12T08:47:25.657Z,102216.41
2022-10-12T08:50:37.878Z,102226.06
2022-10-12T08:53:40.175Z,102214.44
2022-10-12T08:56:40.286Z,102221.56
2022-10-12T08:59:37.320Z,102209.84
2022-10-12T09:02:49.929Z,102217.13
2022-10-12T09:06:11.873Z,102217.88
2022-10-12T09:09:43.230Z,102221.94
2022-10-12T09:12:55.501Z,102207.50
2022-10-12T09:16:21.310Z,102220.00
2022-10-12T09:19:37.446Z,102216.66
2022-10-12T09:22:35.101Z,102216.53
2022-10-12T09:25:32.582Z,102209.69
2022-10-12T09:28:38.177Z,102209.69
2022-10-12T09:32:00.459Z,102205.66
2022-10-12T09:34:57.864Z,102201.28
2022-10-12T09:37:54.566Z,102198.22
2022-10-12T09:40:51.402Z,102204.78
2022-10-12T09:43:53.853Z,102202.78
2022-10-12T09:47:01.579Z,102188.22
2022-10-12T09:50:02.972Z,102200.63
2022-10-12T09:53:00.372Z,102197.22
2022-10-12T09:56:09.702Z,102189.06
2022-10-12T09:59:44.124Z,102187.47
2022-10-12T10:02:48.694Z,102191.91
2022-10-12T10:05:45.413Z,102184.78
2022-10-12T10:08:44.406Z,102187.53
2022-10-12T10:11:41.234Z,102191.81
2022-10-12T10:14:38.529Z,102179.72
2022-10-12T10:17:35.505Z,102191.06
2022-10-12T10:20:34.440Z,102184.00
2022-10-12T10:23:35.222Z,102170.00
2022-10-12T10:26:58.188Z,102178.16
2022-10-12T10:30:04.836Z,102176.66
2022-10-12T10:33:17.357Z,102187.56
2022-10-12T10:36:22.368Z,102166.69
2022-10-12T10:39:24.990Z,102171.53
2022-10-12T10:42:25.159Z,102165.22
2022-10-12T10:45:31.829Z,102162.97
2022-10-12T10:48:30.349Z,102169.00
2022-10-12T10:51:40.930Z,102176.28
2022-10-12T10:54:38.828Z,102180.47
2022-10-12T10:57:35.759Z,102173.25
2022-10-12T11:00:39.006Z,102175.63
2022-10-12T11:04:11.682Z,102157.84
2022-10-12T11:07:19.870Z,102140.50
2022-10-12T11:10:42.140Z,102160.78
2022-10-12T11:13:52.631Z,102153.03
2022-10-12T11:17:02.162Z,102141.09
2022-10-12T11:20:29.275Z,102134.59
2022-10-12T11:23:47.101Z,102117.50
2022-10-12T11:27:05.991Z,102125.53
2022-10-12T11:30:11.384Z,102123.97
2022-10-12T11:33:35.133Z,102116.38
2022-10-12T11:36:33.711Z,102127.03
2022-10-12T11:39:39.177Z,102149.94
2022-10-12T11:42:43.418Z,102126.44
2022-10-12T11:45:43.199Z,102113.91
2022-10-12T11:48:56.547Z,102104.66
2022-10-12T11:51:55.633Z,102094.38
2022-10-12T11:55:27.709Z,102089.66
2022-10-12T11:58:42.376Z,102094.56
2022-10-12T12:01:45.750Z,102081.81
2022-10-12T12:04:44.305Z,102094.03
2022-10-12T12:07:50.853Z,102079.09
2022-10-12T12:11:03.000Z,102076.88
2022-10-12T12:14:21.351Z,102081.53
2022-10-12T12:17:18.828Z,102093.00
2022-10-12T12:20:44.477Z,102078.00
2022-10-12T12:23:55.023Z,102059.66
2022-10-12T12:26:52.513Z,102065.16
2022-10-12T12:29:52.699Z,102063.72
2022-10-12T12:33:00.816Z,102054.31
2022-10-12T12:36:08.229Z,102061.41
2022-10-12T12:39:07.074Z,102057.06
2022-10-12T12:42:08.515Z,102063.00
2022-10-12T12:45:38.937Z,102062.25
2022-10-12T12:48:41.807Z,102057.94
2022-10-12T12:51:40.819Z,102056.16
2022-10-12T12:54:41.849Z,102053.94
2022-10-12T12:57:45.194Z,102057.03
2022-10-12T13:01:01.181Z,102049.09
2022-10-12T13:04:07.439Z,102035.63
2022-10-12T13:07:33.149Z,102041.06
2022-10-12T13:10:39.943Z,102040.06
2022-10-12T13:13:41.898Z,102051.41
2022-10-12T13:20:17.680Z,102050.84
2022-10-12T13:23:17.373Z,102044.50
2022-10-12T13:26:18.062Z,102034.06
2022-10-12T13:29:49.409Z,102023.09
2022-10-12T13:33:13.508Z,102026.50
2022-10-12T13:36:30.784Z,102017.69
2022-10-12T13:39:27.779Z,102002.47
2022-10-12T13:42:30.912Z,102005.13
2022-10-12T13:45:28.485Z,102005.81
2022-10-12T13:48:53.748Z,102014.22
2022-10-12T13:51:43.962Z,101989.94
2022-10-12T13:54:44.374Z,101989.72
2022-10-12T13:57:42.891Z,101988.06
2022-10-12T14:00:39.573Z,101987.56
2022-10-12T14:03:41.822Z,101988.38
2022-10-12T14:06:38.467Z,101988.63
2022-10-12T14:09:44.505Z,101981.00
2022-10-12T14:12:42.112Z,101985.16
2022-10-12T14:15:39.907Z,101970.88
2022-10-12T14:18:42.875Z,101971.34
2022-10-12T14:21:39.751Z,101960.72
2022-10-12T14:24:36.682Z,101956.09
2022-10-12T14:27:34.111Z,101939.19
2022-10-12T14:30:36.763Z,101938.13
2022-10-12T14:33:33.866Z,101944.16
2022-10-12T14:36:30.772Z,101945.28
2022-10-12T14:39:27.694Z,101944.59
2022-10-12T14:42:31.926Z,101946.84
2022-10-12T14:45:28.980Z,101935.91
2022-10-12T14:48:25.930Z,101942.50
2022-10-12T14:51:22.724Z,101937.41
2022-10-12T14:54:19.822Z,101945.53
2022-10-12T14:57:17.151Z,101934.34
2022-10-12T15:00:23.913Z,101936.06
2022-10-12T15:03:20.741Z,101931.78
2022-10-12T15:06:17.809Z,101931.97
2022-10-12T15:09:14.725Z,101944.31
2022-10-12T15:12:13.327Z,101939.13
2022-10-12T15:15:31.490Z,101934.81
2022-10-12T15:18:28.883Z,101931.31
2022-10-12T15:21:25.801Z,101931.16
2022-10-12T15:24:22.861Z,101932.44
2022-10-12T15:27:19.869Z,101926.78
2022-10-12T15:30:17.464Z,101913.34
2022-10-12T15:33:14.764Z,101920.34
2022-10-12T15:36:11.673Z,101918.91
2022-10-12T15:39:09.054Z,101916.19
2022-10-12T15:42:06.103Z,101920.34
2022-10-12T15:45:03.001Z,101935.13
2022-10-12T15:48:00.183Z,101918.00
2022-10-12T15:50:58.114Z,101913.97
2022-10-12T15:53:55.568Z,101905.53
2022-10-12T15:56:52.825Z,101903.28
2022-10-12T15:59:52.409Z,101910.94
2022-10-12T16:02:50.123Z,101916.91
2022-10-12T16:05:48.039Z,101908.81
2022-10-12T16:08:44.818Z,101906.25
2022-10-12T16:11:42.003Z,101910.94
2022-10-12T16:14:38.796Z,101912.16
2022-10-12T16:17:35.631Z,101908.97
2022-10-12T16:20:33.310Z,101898.69
2022-10-12T16:23:32.973Z,101907.91
2022-10-12T16:26:29.920Z,101909.63
2022-10-12T16:29:26.551Z,101904.22
2022-10-12T16:32:24.191Z,101904.97
2022-10-12T16:35:20.783Z,101895.38
2022-10-12T16:38:20.119Z,101898.44
2022-10-12T16:41:17.171Z,101899.38
2022-10-12T16:44:13.840Z,101886.13
2022-10-12T16:47:11.305Z,101890.53
2022-10-12T16:50:09.091Z,101908.19
2022-10-12T16:53:06.177Z,101909.25
2022-10-12T16:56:03.294Z,101904.38
2022-10-12T16:59:01.171Z,101913.22
2022-10-12T17:01:59.426Z,101917.13
2022-10-12T17:04:56.760Z,101920.72
2022-10-12T17:07:53.865Z,101917.69
2022-10-12T17:10:51.099Z,101906.38
2022-10-12T17:13:49.301Z,101916.03
2022-10-12T17:16:49.986Z,101922.66
2022-10-12T17:19:47.277Z,101933.22
2022-10-12T17:22:44.821Z,101929.66
2022-10-12T17:25:43.971Z,101922.84
2022-10-12T17:28:41.261Z,101944.19
2022-10-12T17:31:39.312Z,101937.06
2022-10-12T17:34:41.468Z,101934.66
2022-10-12T17:37:39.110Z,101920.03
2022-10-12T17:40:39.841Z,101911.88
2022-10-12T17:43:36.926Z,101908.22
2022-10-12T17:46:34.116Z,101913.66
2022-10-12T17:49:31.011Z,101922.41
2022-10-12T17:52:28.096Z,101923.50
2022-10-12T17:55:43.866Z,101923.84
2022-10-12T17:58:43.575Z,101917.94
2022-10-12T18:01:40.953Z,101917.22
2022-10-12T18:04:37.863Z,101912.59
2022-10-12T18:07:36.059Z,101924.19
2022-10-12T18:10:32.681Z,101920.03
2022-10-12T18:13:30.332Z,101905.53
2022-10-12T18:16:29.835Z,101916.06
2022-10-12T18:19:27.375Z,101930.91
2022-10-12T18:22:25.267Z,101913.97
2022-10-12T18:25:22.391Z,101900.75
2022-10-12T18:28:20.167Z,101924.31
2022-10-12T18:31:20.664Z,101921.00
2022-10-12T18:34:18.111Z,101916.22
2022-10-12T18:37:15.151Z,101926.91
2022-10-12T18:40:12.261Z,101918.16
2022-10-12T18:43:08.822Z,101906.78
2022-10-12T18:46:10.716Z,101899.50
2022-10-12T18:49:08.437Z,101892.78
2022-10-12T18:52:06.046Z,101886.16
2022-10-12T18:55:03.003Z,101909.47
2022-10-12T18:57:59.914Z,101914.81
2022-10-12T19:00:57.019Z,101917.69
2022-10-12T19:03:55.048Z,101894.94
2022-10-12T19:06:56.910Z,101899.28
2022-10-12T19:09:55.321Z,101882.53
2022-10-12T19:12:51.860Z,101883.88
2022-10-12T19:15:48.860Z,101889.31
2022-10-12T19:18:45.837Z,101894.22
2022-10-12T19:21:45.229Z,101878.31
2022-10-12T19:24:42.158Z,101874.31
2022-10-12T19:27:38.797Z,101883.47
2022-10-12T19:30:39.434Z,101868.69
2022-10-12T19:33:37.162Z,101858.66
2022-10-12T19:36:34.409Z,101867.53
2022-10-12T19:39:33.091Z,101849.66
2022-10-12T19:42:29.639Z,101862.94
2022-10-12T19:45:26.980Z,101881.78
2022-10-12T19:48:24.077Z,101878.19
2022-10-12T19:51:21.747Z,101845.06
2022-10-12T19:54:19.718Z,101852.56
2022-10-12T19:57:17.068Z,101853.28
2022-10-12T20:00:14.795Z,101847.38
2022-10-12T20:03:14.278Z,101847.72
2022-10-12T20:06:11.104Z,101856.31
2022-10-12T20:09:08.309Z,101846.34
2022-10-12T20:12:06.177Z,101847.03
2022-10-12T20:15:02.757Z,101846.63
2022-10-12T20:18:00.184Z,101854.28
2022-10-12T20:20:57.322Z,101865.03
2022-10-12T20:23:53.956Z,101866.94
2022-10-12T20:26:50.886Z,101865.34
2022-10-12T20:29:48.020Z,101848.63
2022-10-12T20:32:44.967Z,101844.00
2022-10-12T20:35:48.552Z,101858.66
2022-10-12T20:38:46.105Z,101858.94
2022-10-12T20:41:43.024Z,101844.22
2022-10-12T20:44:39.981Z,101834.22
2022-10-12T20:47:36.780Z,101834.59
2022-10-12T20:50:34.227Z,101845.94
2022-10-12T20:53:31.537Z,101852.22
2022-10-12T20:56:29.764Z,101838.09
2022-10-12T20:59:26.948Z,101842.50
2022-10-12T21:02:23.957Z,101842.69
2022-10-12T21:05:20.987Z,101854.13
2022-10-12T21:08:17.905Z,101856.44
2022-10-12T21:11:15.177Z,101852.34
2022-10-12T21:14:13.051Z,101853.78
2022-10-12T21:17:10.277Z,101849.47
2022-10-12T21:20:07.685Z,101849.03
2022-10-12T21:23:05.265Z,101838.13
2022-10-12T21:26:17.724Z,101836.78
2022-10-12T21:29:15.078Z,101836.00
2022-10-12T21:32:11.829Z,101830.34
2022-10-12T21:35:09.190Z,101833.03
2022-10-12T21:38:05.913Z,101827.06
2022-10-12T21:41:03.391Z,101830.41
2022-10-12T21:43:59.971Z,101823.81
2022-10-12T21:46:58.284Z,101841.91
2022-10-12T21:49:55.059Z,101843.00
2022-10-12T21:52:55.470Z,101826.75
2022-10-12T21:55:55.347Z,101830.81
2022-10-12T21:58:52.544Z,101835.78
2022-10-12T22:01:49.931Z,101826.19
2022-10-12T22:04:47.099Z,101822.41
2022-10-12T22:07:44.270Z,101823.91
2022-10-12T22:10:43.163Z,101811.44
2022-10-12T22:13:40.226Z,101818.44
2022-10-12T22:16:37.066Z,101815.06
2022-10-12T22:19:34.124Z,101812.78
2022-10-12T22:22:31.322Z,101806.97
2022-10-12T22:25:28.223Z,101817.06
2022-10-12T22:28:24.964Z,101817.19
2022-10-12T22:31:22.920Z,101806.59
2022-10-12T22:34:20.460Z,101796.50
2022-10-12T22:37:17.239Z,101795.50
2022-10-12T22:40:14.325Z,101789.34
2022-10-12T22:43:11.240Z,101797.81
2022-10-12T22:46:08.150Z,101795.53
2022-10-12T22:49:05.337Z,101792.66
2022-10-12T22:52:02.359Z,101787.69
2022-10-12T22:55:00.240Z,101789.03
2022-10-12T22:57:57.124Z,101781.41
2022-10-12T23:01:02.965Z,101774.47
2022-10-12T23:04:02.591Z,101770.09
2022-10-12T23:07:00.014Z,101762.31
2022-10-12T23:09:57.309Z,101777.41
2022-10-12T23:12:54.315Z,101767.47
2022-10-12T23:15:51.160Z,101773.09
2022-10-12T23:18:48.118Z,101769.78
2022-10-12T23:21:45.018Z,101765.63
2022-10-12T23:24:42.280Z,101760.50
2022-10-12T23:27:39.236Z,101754.53
2022-10-12T23:30:37.725Z,101758.34
2022-10-12T23:33:35.382Z,101748.56
2022-10-12T23:36:32.459Z,101747.41
2022-10-12T23:39:29.383Z,101751.41
2022-10-12T23:42:26.351Z,101757.22
2022-10-12T23:45:24.397Z,101751.56
2022-10-12T23:48:21.629Z,101753.72
2022-10-12T23:51:19.444Z,101759.19
2022-10-12T23:54:15.840Z,101756.03
2022-10-12T23:57:34.342Z,101756.56
